Terminal Aerodrome Forecast
Issued by NWS

Home | Current Version | Previous Version | Text Only | Print | Product List | Glossary On
Versions: 1 2 3 4 5 6 7 8 9 10
640
FTUS43 KAPX 241120
TAFMBL
TAF
KMBL 241120Z 2412/2512 13007KT P6SM FEW200
     FM241600 16009KT P6SM FEW200
     FM241700 20008KT P6SM FEW150
     FM242000 26004KT P6SM FEW250
     FM250000 13004KT P6SM FEW250 WS020/15040KT
     FM250400 14008KT P6SM BKN250 WS020/16040KT
     FM250900 14008KT P6SM BKN200=

USA.gov is the U.S. government's official web portal to all federal, state and local government web resources and services.